| time (UTC) | temp F | wind direction | speed MPH | gust MPH | rain 1hr in | rain 24hr in | rain mn in | humidity % | barometer mb |
| 20260902123154 | 66 | 232 | 0.0 | 1.0 | 0.00 | 0.15 | 0.15 | 99 | 1052.5 |
| 20260902122648 | 66 | 215 | 2.0 | 2.0 | 0.00 | 0.15 | 0.15 | 99 | 1052.3 |
| 20260902122144 | 66 | 243 | 0.0 | 0.0 | 0.00 | 0.15 | 0.15 | 99 | 1051.8 |
| 20260902121638 | 66 | 220 | 0.0 | 1.0 | 0.00 | 0.15 | 0.15 | 99 | 1052.0 |
| 20260902121133 | 66 | 233 | 0.0 | 0.0 | 0.00 | 0.15 | 0.15 | 99 | 1052.3 |
| 20260902120630 | 66 | 240 | 0.0 | 0.0 | 0.00 | 0.15 | 0.15 | 99 | 1052.0 |
| 20260902120126 | 65 | 204 | 0.0 | 0.0 | 0.00 | 0.15 | 0.15 | 99 | 1052.2 |
| 20260902115620 | 65 | 224 | 0.0 | 0.0 | 0.00 | 0.15 | 0.15 | 99 | 1052.3 |
| 20260902115116 | 65 | 223 | 0.0 | 0.0 | 0.00 | 0.15 | 0.15 | 99 | 1052.4 |
| 20260902114612 | 65 | 226 | 0.0 | 0.0 | 0.00 | 0.15 | 0.15 | 99 | 1052.5 |
| 20260902114112 | 65 | 220 | 0.0 | 1.0 | 0.00 | 0.15 | 0.15 | 99 | 1051.9 |
| 20260902113608 | 66 | 234 | 0.0 | 1.0 | 0.00 | 0.15 | 0.15 | 99 | 1051.9 |
| 20260902113108 | 65 | 227 | 2.0 | 3.0 | 0.00 | 0.15 | 0.15 | 99 | 1051.7 |
| 20260902112603 | 66 | 251 | 1.0 | 2.0 | 0.00 | 0.15 | 0.15 | 99 | 1051.8 |
| 20260902112100 | 66 | 285 | 1.0 | 2.0 | 0.00 | 0.15 | 0.15 | 99 | 1051.5 |
| 20260902111555 | 66 | 243 | 0.0 | 2.0 | 0.00 | 0.15 | 0.15 | 99 | 1050.9 |
| 20260902111051 | 66 | 173 | 2.0 | 2.0 | 0.00 | 0.15 | 0.15 | 99 | 1051.2 |
| 20260902110548 | 66 | 294 | 2.0 | 2.0 | 0.00 | 0.15 | 0.15 | 99 | 1050.9 |
| 20260902110043 | 66 | 250 | 1.0 | 3.0 | 0.05 | 0.15 | 0.15 | 99 | 1050.5 |
| 20260902105538 | 66 | 214 | 0.0 | 1.0 | 0.05 | 0.15 | 0.15 | 99 | 1050.7 |
| 20260902105037 | 66 | 223 | 0.0 | 2.0 | 0.00 | 0.14 | 0.14 | 99 | 1051.3 |
| 20260902104533 | 66 | 204 | 1.0 | 1.0 | 0.00 | 0.14 | 0.14 | 99 | 1051.2 |
| 20260902104033 | 66 | 264 | 1.0 | 2.0 | 0.00 | 0.14 | 0.14 | 99 | 1051.6 |
| 20260902103528 | 66 | 232 | 1.0 | 2.0 | 0.00 | 0.14 | 0.14 | 99 | 1051.3 |
| 20260902103023 | 66 | 236 | 2.0 | 4.0 | 0.07 | 0.14 | 0.14 | 99 | 1051.7 |
| 20260902102520 | 66 | 228 | 0.0 | 1.0 | 0.12 | 0.14 | 0.14 | 99 | 1051.2 |
| 20260902102017 | 66 | 216 | 1.0 | 1.0 | 0.12 | 0.13 | 0.13 | 99 | 1051.1 |
| 20260902101512 | 66 | 232 | 0.0 | 0.0 | 0.14 | 0.12 | 0.12 | 98 | 1051.3 |
| 20260902101010 | 66 | 217 | 0.0 | 1.0 | 0.12 | 0.11 | 0.11 | 98 | 1051.1 |
| 20260902100506 | 66 | 44 | 2.0 | 2.0 | 0.12 | 0.10 | 0.10 | 97 | 1052.3 |
| 20260902100005 | 67 | 292 | 2.0 | 4.0 | 0.12 | 0.09 | 0.09 | 96 | 1052.9 |
| 20260902095500 | 67 | 231 | 1.0 | 2.0 | 0.12 | 0.08 | 0.08 | 95 | 1053.7 |
| 20260902094959 | 68 | 207 | 1.0 | 2.0 | 0.07 | 0.07 | 0.07 | 93 | 1053.8 |
| 20260902094455 | 67 | 232 | 2.0 | 6.0 | 0.05 | 0.06 | 0.06 | 96 | 1053.6 |
| 20260902093955 | 67 | 334 | 1.0 | 1.0 | 0.07 | 0.05 | 0.05 | 95 | 1054.1 |
| 20260902093451 | 67 | 237 | 1.0 | 1.0 | 0.00 | 0.04 | 0.04 | 95 | 1054.0 |
| 20260902092950 | 67 | 238 | 0.0 | 1.0 | 0.00 | 0.04 | 0.04 | 94 | 1054.3 |
| 20260902092445 | 68 | 203 | 1.0 | 2.0 | 0.17 | 0.04 | 0.04 | 93 | 1054.4 |
| 20260902091945 | 69 | 229 | 3.0 | 11.0 | 0.24 | 0.04 | 0.04 | 91 | 1055.1 |
| 20260902091440 | 70 | 291 | 2.0 | 3.0 | 0.00 | 0.00 | 0.00 | 86 | 1055.5 |
| 20260902090937 | 69 | 230 | 3.0 | 17.0 | 0.00 | 0.00 | 0.00 | 88 | 1056.7 |
| 20260902090432 | 68 | 183 | 1.0 | 3.0 | 0.00 | 0.00 | 0.00 | 89 | 1051.9 |
| 20260902085930 | 68 | 61 | 5.0 | 6.0 | 0.00 | 0.00 | 0.00 | 90 | 1051.4 |
| 20260902085425 | 68 | 142 | 2.0 | 6.0 | 0.00 | 0.00 | 0.00 | 90 | 1051.8 |
| 20260902084920 | 68 | 105 | 2.0 | 4.0 | 0.00 | 0.00 | 0.00 | 91 | 1051.9 |
| 20260902084417 | 69 | 60 | 3.0 | 4.0 | 0.00 | 0.00 | 0.00 | 90 | 1052.0 |
| 20260902083912 | 69 | 100 | 2.0 | 6.0 | 0.00 | 0.00 | 0.00 | 91 | 1051.7 |
| 20260902083407 | 69 | 33 | 2.0 | 3.0 | 0.00 | 0.00 | 0.00 | 91 | 1051.8 |
| 20260902082902 | 69 | 210 | 2.0 | 6.0 | 0.00 | 0.00 | 0.00 | 91 | 1051.8 |
| 20260902082358 | 69 | 38 | 3.0 | 6.0 | 0.00 | 0.00 | 0.00 | 91 | 1051.9 |
| 20260902081854 | 69 | 69 | 3.0 | 4.0 | 0.00 | 0.00 | 0.00 | 92 | 1051.9 |
| 20260902081350 | 69 | 53 | 3.0 | 4.0 | 0.00 | 0.00 | 0.00 | 92 | 1052.4 |
| 20260902080845 | 69 | 224 | 1.0 | 2.0 | 0.00 | 0.00 | 0.00 | 92 | 1052.4 |
| 20260902080341 | 69 | 250 | 1.0 | 3.0 | 0.00 | 0.00 | 0.00 | 92 | 1052.0 |
| 20260902075840 | 69 | 160 | 1.0 | 2.0 | 0.00 | 0.00 | 0.00 | 92 | 1051.9 |
| 20260902075337 | 69 | 92 | 1.0 | 2.0 | 0.00 | 0.00 | 0.00 | 92 | 1052.3 |
| 20260902074831 | 69 | 121 | 2.0 | 2.0 | 0.00 | 0.00 | 0.00 | 91 | 1052.0 |
| 20260902074321 | 69 | 300 | 1.0 | 2.0 | 0.00 | 0.00 | 0.00 | 91 | 1052.3 |
| 20260902073816 | 69 | 21 | 2.0 | 4.0 | 0.00 | 0.00 | 0.00 | 91 | 1052.4 |
| 20260902073312 | 69 | 10 | 5.0 | 6.0 | 0.00 | 0.00 | 0.00 | 90 | 1052.3 |
| 20260902072808 | 69 | 270 | 0.0 | 0.0 | 0.00 | 0.00 | 0.00 | 90 | 1052.4 |
| 20260902072309 | 70 | 11 | 3.0 | 3.0 | 0.00 | 0.00 | 0.00 | 89 | 1052.3 |
| 20260902071800 | 70 | 268 | 1.0 | 3.0 | 0.00 | 0.00 | 0.00 | 88 | 1052.3 |
| 20260902071255 | 71 | 175 | 4.0 | 6.0 | 0.00 | 0.00 | 0.00 | 87 | 1052.4 |
| 20260902070751 | 71 | 262 | 1.0 | 2.0 | 0.00 | 0.00 | 0.00 | 85 | 1052.5 |
| 20260902070251 | 71 | 11 | 0.0 | 1.0 | 0.00 | 0.00 | 0.00 | 84 | 1052.5 |
| 20260902065749 | 72 | 335 | 1.0 | 1.0 | 0.00 | 0.00 | 0.00 | 83 | 1052.7 |
| 20260902065245 | 72 | 349 | 3.0 | 6.0 | 0.00 | 0.00 | 0.00 | 82 | 1052.3 |
| 20260902064740 | 73 | 280 | 2.0 | 3.0 | 0.00 | 0.00 | 0.00 | 81 | 1052.3 |
| 20260902064236 | 73 | 234 | 3.0 | 6.0 | 0.00 | 0.00 | 0.00 | 81 | 1052.5 |
| 20260902063732 | 73 | 66 | 4.0 | 7.0 | 0.00 | 0.00 | 0.00 | 80 | 1053.0 |
| 20260902063232 | 74 | 300 | 8.0 | 14.0 | 0.00 | 0.00 | 0.00 | 79 | 1053.6 |
| 20260902062726 | 75 | 242 | 4.0 | 9.0 | 0.00 | 0.00 | 0.00 | 84 | 1053.4 |
| 20260902062221 | 74 | 64 | 5.0 | 8.0 | 0.00 | 0.00 | 0.00 | 87 | 1053.0 |
| 20260902061720 | 74 | 283 | 1.0 | 2.0 | 0.00 | 0.00 | 0.00 | 91 | 1051.0 |
| 20260902061215 | 74 | 233 | 0.0 | 0.0 | 0.00 | 0.00 | 0.00 | 91 | 1050.8 |
| 20260902060712 | 74 | 196 | 0.0 | 1.0 | 0.00 | 0.00 | 0.00 | 91 | 1050.8 |
| 20260902060208 | 74 | 255 | 0.0 | 1.0 | 0.00 | 0.00 | 0.00 | 91 | 1050.6 |
| 20260902055703 | 74 | 232 | 0.0 | 1.0 | 0.00 | 0.00 | 0.00 | 90 | 1050.3 |
| 20260902055159 | 74 | 223 | 1.0 | 2.0 | 0.00 | 0.00 | 0.00 | 89 | 1050.1 |
| 20260902054654 | 75 | 232 | 1.0 | 7.0 | 0.00 | 0.00 | 0.00 | 88 | 1050.2 |
| 20260902054149 | 76 | 105 | 1.0 | 2.0 | 0.00 | 0.00 | 0.00 | 88 | 1049.9 |
| 20260902053644 | 75 | 158 | 2.0 | 4.0 | 0.00 | 0.00 | 0.00 | 88 | 1049.9 |
| 20260902053139 | 75 | 246 | 1.0 | 1.0 | 0.00 | 0.00 | 0.00 | 88 | 1049.8 |
| 20260902052638 | 75 | 92 | 1.0 | 1.0 | 0.00 | 0.00 | 0.00 | 87 | 1050.0 |
| 20260902052134 | 75 | 192 | 1.0 | 4.0 | 0.00 | 0.00 | 0.00 | 87 | 1050.4 |
| 20260902051633 | 75 | 241 | 0.0 | 1.0 | 0.00 | 0.00 | 0.00 | 86 | 1050.6 |
| 20260902051127 | 75 | 240 | 0.0 | 1.0 | 0.00 | 0.00 | 0.00 | 86 | 1050.8 |
| 20260902050627 | 75 | 343 | 1.0 | 2.0 | 0.00 | 0.00 | 0.00 | 85 | 1050.6 |
| 20260902050123 | 75 | 101 | 2.0 | 4.0 | 0.00 | 0.00 | 0.00 | 85 | 1050.8 |
| 20260902045618 | 75 | 196 | 1.0 | 2.0 | 0.00 | 0.00 | 0.00 | 84 | 1050.8 |
| 20260902045109 | 76 | 158 | 0.0 | 2.0 | 0.00 | 0.00 | 0.00 | 83 | 1050.9 |
| 20260902044609 | 76 | 302 | 1.0 | 6.0 | 0.00 | 0.00 | 0.00 | 82 | 1050.9 |
| 20260902044104 | 76 | 265 | 2.0 | 3.0 | 0.00 | 0.00 | 0.00 | 81 | 1050.7 |
| 20260902043600 | 76 | 310 | 1.0 | 4.0 | 0.00 | 0.00 | 0.00 | 81 | 1050.8 |
| 20260902043054 | 76 | 248 | 0.0 | 2.0 | 0.00 | 0.00 | 0.00 | 80 | 1051.0 |
| 20260902042554 | 76 | 329 | 2.0 | 6.0 | 0.00 | 0.00 | 0.00 | 79 | 1051.1 |
| 20260902042049 | 76 | 32 | 2.0 | 4.0 | 0.00 | 0.00 | 0.00 | 79 | 1051.1 |
| 20260902041548 | 76 | 56 | 3.0 | 3.0 | 0.00 | 0.00 | 0.00 | 79 | 1050.9 |
| 20260902041043 | 76 | 34 | 2.0 | 3.0 | 0.00 | 0.00 | 0.00 | 79 | 1051.1 |
| 20260902040538 | 77 | 32 | 2.0 | 2.0 | 0.00 | 0.00 | 0.00 | 79 | 1050.9 |
| 20260902040033 | 77 | 57 | 1.0 | 4.0 | 0.00 | 0.00 | 0.00 | 78 | 1050.9 |
| 20260902035531 | 77 | 24 | 2.0 | 4.0 | 0.00 | 0.00 | 0.00 | 78 | 1050.9 |
| 20260902035027 | 76 | 51 | 2.0 | 4.0 | 0.00 | 0.00 | 0.00 | 79 | 1050.9 |
| 20260902034526 | 77 | 57 | 2.0 | 4.0 | 0.00 | 0.00 | 0.00 | 79 | 1051.0 |
| 20260902034025 | 77 | 6 | 3.0 | 4.0 | 0.00 | 0.00 | 0.00 | 80 | 1051.1 |
| 20260902033525 | 77 | 46 | 2.0 | 3.0 | 0.00 | 0.00 | 0.00 | 80 | 1051.1 |
| 20260902033020 | 76 | 310 | 1.0 | 3.0 | 0.00 | 0.00 | 0.00 | 81 | 1051.2 |
| 20260902032514 | 75 | 270 | 1.0 | 2.0 | 0.00 | 0.00 | 0.00 | 83 | 1051.4 |
| 20260902032008 | 75 | 217 | 0.0 | 1.0 | 0.00 | 0.00 | 0.00 | 83 | 1051.5 |
| 20260902031503 | 75 | 235 | 1.0 | 1.0 | 0.00 | 0.00 | 0.00 | 83 | 1051.6 |
| 20260902030959 | 75 | 234 | 0.0 | 2.0 | 0.00 | 0.00 | 0.00 | 83 | 1051.8 |
| 20260902030454 | 76 | 279 | 1.0 | 2.0 | 0.00 | 0.00 | 0.00 | 83 | 1051.6 |
| 20260902025952 | 76 | 244 | 1.0 | 2.0 | 0.00 | 0.00 | 0.00 | 82 | 1051.6 |
| 20260902025448 | 76 | 167 | 1.0 | 1.0 | 0.00 | 0.00 | 0.00 | 83 | 1051.9 |
| 20260902024949 | 76 | 262 | 0.0 | 1.0 | 0.00 | 0.00 | 0.00 | 83 | 1051.7 |
| 20260902024444 | 75 | 256 | 0.0 | 1.0 | 0.00 | 0.00 | 0.00 | 84 | 1051.7 |
| 20260902023944 | 76 | 258 | 1.0 | 1.0 | 0.00 | 0.00 | 0.00 | 84 | 1051.6 |
| 20260902023440 | 76 | 196 | 0.0 | 1.0 | 0.00 | 0.00 | 0.00 | 84 | 1051.6 |
| 20260902022939 | 76 | 50 | 0.0 | 1.0 | 0.00 | 0.00 | 0.00 | 82 | 1051.5 |
| 20260902022434 | 76 | 246 | 0.0 | 1.0 | 0.00 | 0.00 | 0.00 | 82 | 1051.7 |
| 20260902021931 | 77 | 269 | 1.0 | 1.0 | 0.00 | 0.00 | 0.00 | 82 | 1051.6 |
| 20260902021431 | 77 | 233 | 0.0 | 2.0 | 0.00 | 0.00 | 0.00 | 81 | 1051.5 |
| 20260902020926 | 77 | 263 | 0.0 | 1.0 | 0.00 | 0.00 | 0.00 | 81 | 1051.5 |
| 20260902020422 | 77 | 296 | 1.0 | 2.0 | 0.00 | 0.00 | 0.00 | 81 | 1051.4 |
| 20260902015912 | 77 | 327 | 1.0 | 3.0 | 0.00 | 0.00 | 0.00 | 83 | 1051.4 |
| 20260902015408 | 77 | 332 | 1.0 | 2.0 | 0.00 | 0.00 | 0.00 | 82 | 1051.3 |
| 20260902014903 | 77 | 318 | 1.0 | 1.0 | 0.00 | 0.00 | 0.00 | 82 | 1051.6 |
| 20260902014400 | 77 | 276 | 1.0 | 2.0 | 0.00 | 0.00 | 0.00 | 81 | 1051.4 |
| 20260902013858 | 77 | 300 | 1.0 | 1.0 | 0.00 | 0.00 | 0.00 | 81 | 1051.3 |
| 20260902013354 | 78 | 254 | 0.0 | 1.0 | 0.00 | 0.00 | 0.00 | 82 | 1051.3 |
| 20260902012849 | 78 | 302 | 1.0 | 1.0 | 0.00 | 0.00 | 0.00 | 80 | 1051.5 |
| 20260902012345 | 78 | 220 | 0.0 | 1.0 | 0.00 | 0.00 | 0.00 | 80 | 1051.6 |
| 20260902011841 | 78 | 259 | 1.0 | 1.0 | 0.00 | 0.00 | 0.00 | 78 | 1051.4 |
| 20260902011335 | 78 | 212 | 0.0 | 1.0 | 0.00 | 0.00 | 0.00 | 78 | 1051.3 |
| 20260902010834 | 78 | 274 | 1.0 | 1.0 | 0.00 | 0.00 | 0.00 | 80 | 1051.4 |
| 20260902010329 | 78 | 259 | 0.0 | 1.0 | 0.00 | 0.00 | 0.00 | 80 | 1051.4 |
| 20260902005828 | 78 | 255 | 0.0 | 1.0 | 0.00 | 0.00 | 0.00 | 80 | 1051.4 |
| 20260902005323 | 78 | 251 | 0.0 | 1.0 | 0.00 | 0.00 | 0.00 | 81 | 1051.5 |
| 20260902004819 | 79 | 266 | 0.0 | 1.0 | 0.00 | 0.00 | 0.00 | 79 | 1051.6 |
| 20260902004313 | 79 | 308 | 1.0 | 1.0 | 0.00 | 0.00 | 0.00 | 80 | 1051.5 |
| 20260902003808 | 79 | 223 | 0.0 | 1.0 | 0.00 | 0.00 | 0.00 | 80 | 1051.6 |
| 20260902003303 | 79 | 224 | 0.0 | 1.0 | 0.00 | 0.00 | 0.00 | 81 | 1051.4 |
| 20260902002759 | 80 | 212 | 0.0 | 1.0 | 0.00 | 0.00 | 0.00 | 80 | 1051.4 |
| 20260902002258 | 80 | 215 | 0.0 | 0.0 | 0.00 | 0.00 | 0.00 | 80 | 1051.6 |
| 20260902001754 | 80 | 215 | 0.0 | 1.0 | 0.00 | 0.00 | 0.00 | 79 | 1051.5 |
| 20260902001249 | 81 | 22 | 1.0 | 1.0 | 0.00 | 0.00 | 0.00 | 78 | 1051.6 |
| 20260902000749 | 81 | 317 | 1.0 | 2.0 | 0.00 | 0.00 | 0.00 | 76 | 1051.5 |
| 20260902000244 | 81 | 156 | 1.0 | 1.0 | 0.00 | 0.00 | 0.00 | 76 | 1051.5 |
| 20260901235738 | 82 | 185 | 0.0 | 2.0 | 0.00 | 0.00 | 0.00 | 76 | 1051.7 |
| 20260901235234 | 82 | 243 | 0.0 | 0.0 | 0.00 | 0.00 | 0.00 | 73 | 1051.4 |
| 20260901234727 | 82 | 188 | 1.0 | 1.0 | 0.00 | 0.00 | 0.00 | 72 | 1051.5 |
| 20260901234227 | 82 | 230 | 0.0 | 0.0 | 0.00 | 0.00 | 0.00 | 74 | 1051.7 |
| 20260901233722 | 82 | 244 | 0.0 | 0.0 | 0.00 | 0.00 | 0.00 | 75 | 1051.5 |
| 20260901233219 | 82 | 251 | 0.0 | 0.0 | 0.00 | 0.00 | 0.00 | 72 | 1051.6 |
| 20260901232718 | 82 | 252 | 0.0 | 0.0 | 0.00 | 0.00 | 0.00 | 70 | 1051.6 |
| 20260901232214 | 83 | 257 | 0.0 | 1.0 | 0.00 | 0.00 | 0.00 | 69 | 1051.8 |
| 20260901231710 | 83 | 247 | 1.0 | 1.0 | 0.00 | 0.00 | 0.00 | 68 | 1051.7 |
| 20260901231206 | 84 | 240 | 0.0 | 1.0 | 0.00 | 0.00 | 0.00 | 67 | 1051.7 |
| 20260901230701 | 84 | 67 | 2.0 | 2.0 | 0.00 | 0.00 | 0.00 | 66 | 1051.6 |
| 20260901230155 | 84 | 216 | 0.0 | 1.0 | 0.00 | 0.00 | 0.00 | 65 | 1051.7 |
| 20260901225650 | 84 | 258 | 0.0 | 1.0 | 0.00 | 0.00 | 0.00 | 65 | 1051.5 |
| 20260901225145 | 84 | 268 | 1.0 | 1.0 | 0.00 | 0.00 | 0.00 | 64 | 1051.8 |
| 20260901224641 | 85 | 283 | 1.0 | 2.0 | 0.00 | 0.00 | 0.00 | 61 | 1051.6 |
| 20260901224137 | 86 | 53 | 2.0 | 3.0 | 0.00 | 0.00 | 0.00 | 59 | 1051.9 |
| 20260901223632 | 87 | 119 | 1.0 | 2.0 | 0.00 | 0.00 | 0.00 | 58 | 1051.7 |
| 20260901223127 | 86 | 252 | 1.0 | 2.0 | 0.00 | 0.00 | 0.00 | 57 | 1051.8 |
| 20260901222624 | 86 | 234 | 0.0 | 3.0 | 0.00 | 0.00 | 0.00 | 59 | 1051.9 |
| 20260901222119 | 86 | 224 | 0.0 | 1.0 | 0.00 | 0.00 | 0.00 | 58 | 1051.8 |
| 20260901221615 | 85 | 307 | 1.0 | 3.0 | 0.00 | 0.00 | 0.00 | 61 | 1051.8 |
| 20260901221111 | 85 | 346 | 1.0 | 3.0 | 0.00 | 0.00 | 0.00 | 65 | 1051.9 |
| 20260901220610 | 85 | 148 | 3.0 | 3.0 | 0.00 | 0.00 | 0.00 | 64 | 1051.7 |
| 20260901220109 | 85 | 339 | 1.0 | 3.0 | 0.00 | 0.00 | 0.00 | 65 | 1051.9 |
| 20260901215607 | 85 | 339 | 2.0 | 3.0 | 0.00 | 0.00 | 0.00 | 63 | 1051.9 |
| 20260901215102 | 84 | 57 | 1.0 | 2.0 | 0.00 | 0.00 | 0.00 | 64 | 1052.2 |
| 20260901214601 | 85 | 268 | 1.0 | 1.0 | 0.00 | 0.00 | 0.00 | 65 | 1052.2 |
| 20260901214101 | 85 | 232 | 0.0 | 1.0 | 0.00 | 0.00 | 0.00 | 63 | 1051.9 |
| 20260901213555 | 86 | 272 | 0.0 | 1.0 | 0.00 | 0.00 | 0.00 | 62 | 1051.8 |
| 20260901213049 | 85 | 193 | 3.0 | 3.0 | 0.00 | 0.00 | 0.00 | 62 | 1051.8 |
| 20260901212544 | 86 | 327 | 1.0 | 3.0 | 0.00 | 0.00 | 0.00 | 65 | 1051.9 |
| 20260901212040 | 87 | 42 | 2.0 | 3.0 | 0.00 | 0.00 | 0.00 | 60 | 1051.8 |
| 20260901211535 | 88 | 58 | 2.0 | 6.0 | 0.00 | 0.00 | 0.00 | 60 | 1051.8 |
| 20260901211032 | 87 | 199 | 1.0 | 3.0 | 0.00 | 0.00 | 0.00 | 60 | 1051.7 |
| 20260901210526 | 87 | 175 | 2.0 | 3.0 | 0.00 | 0.00 | 0.00 | 59 | 1051.9 |
| 20260901210023 | 87 | 77 | 1.0 | 7.0 | 0.00 | 0.00 | 0.00 | 60 | 1051.8 |
| 20260901205517 | 86 | 201 | 1.0 | 3.0 | 0.00 | 0.00 | 0.00 | 61 | 1051.8 |
| 20260901205012 | 86 | 118 | 3.0 | 4.0 | 0.00 | 0.00 | 0.00 | 59 | 1052.0 |
| 20260901204509 | 86 | 81 | 4.0 | 6.0 | 0.00 | 0.00 | 0.00 | 60 | 1052.3 |
| 20260901204008 | 87 | 302 | 3.0 | 6.0 | 0.00 | 0.00 | 0.00 | 59 | 1052.2 |
| 20260901203503 | 87 | 130 | 1.0 | 3.0 | 0.00 | 0.00 | 0.00 | 60 | 1051.9 |
| 20260901202958 | 87 | 235 | 1.0 | 3.0 | 0.00 | 0.00 | 0.00 | 61 | 1052.2 |
| 20260901202453 | 86 | 190 | 3.0 | 3.0 | 0.00 | 0.00 | 0.00 | 59 | 1052.0 |
| 20260901201949 | 87 | 235 | 2.0 | 4.0 | 0.00 | 0.00 | 0.00 | 59 | 1052.5 |
| 20260901201443 | 87 | 213 | 3.0 | 3.0 | 0.00 | 0.00 | 0.00 | 59 | 1052.3 |
| 20260901200938 | 86 | 222 | 2.0 | 3.0 | 0.00 | 0.00 | 0.00 | 59 | 1052.5 |
| 20260901200433 | 86 | 238 | 1.0 | 3.0 | 0.00 | 0.00 | 0.00 | 61 | 1052.5 |
| 20260901195931 | 86 | 230 | 1.0 | 4.0 | 0.00 | 0.00 | 0.00 | 59 | 1052.8 |
| 20260901195425 | 85 | 227 | 3.0 | 4.0 | 0.00 | 0.00 | 0.00 | 60 | 1052.7 |
| 20260901194920 | 85 | 169 | 2.0 | 4.0 | 0.00 | 0.00 | 0.00 | 61 | 1052.7 |
| 20260901194414 | 86 | 227 | 2.0 | 3.0 | 0.00 | 0.00 | 0.00 | 60 | 1052.8 |
| 20260901193910 | 86 | 196 | 3.0 | 7.0 | 0.00 | 0.00 | 0.00 | 60 | 1052.8 |
| 20260901193409 | 86 | 187 | 1.0 | 4.0 | 0.00 | 0.00 | 0.00 | 61 | 1052.8 |
| 20260901192904 | 86 | 246 | 2.0 | 6.0 | 0.00 | 0.00 | 0.00 | 60 | 1052.9 |
| 20260901192400 | 86 | 146 | 1.0 | 4.0 | 0.00 | 0.00 | 0.00 | 55 | 1052.7 |
| 20260901191856 | 86 | 296 | 1.0 | 3.0 | 0.00 | 0.00 | 0.00 | 58 | 1052.6 |
| 20260901191351 | 86 | 227 | 0.0 | 2.0 | 0.00 | 0.00 | 0.00 | 60 | 1052.9 |
| 20260901190847 | 86 | 356 | 2.0 | 4.0 | 0.00 | 0.00 | 0.00 | 58 | 1052.9 |
| 20260901190346 | 87 | 209 | 2.0 | 3.0 | 0.00 | 0.00 | 0.00 | 58 | 1053.0 |
| 20260901185844 | 87 | 252 | 3.0 | 6.0 | 0.00 | 0.00 | 0.00 | 56 | 1053.1 |
| 20260901185338 | 87 | 70 | 4.0 | 6.0 | 0.00 | 0.00 | 0.00 | 53 | 1053.0 |
| 20260901184834 | 86 | 174 | 1.0 | 2.0 | 0.00 | 0.00 | 0.00 | 54 | 1052.7 |
| 20260901184330 | 85 | 246 | 1.0 | 2.0 | 0.00 | 0.00 | 0.00 | 55 | 1052.5 |
| 20260901183825 | 86 | 27 | 3.0 | 4.0 | 0.00 | 0.00 | 0.00 | 53 | 1052.5 |
| 20260901183324 | 87 | 336 | 0.0 | 1.0 | 0.00 | 0.00 | 0.00 | 53 | 1053.2 |
| 20260901182821 | 88 | 211 | 4.0 | 6.0 | 0.00 | 0.00 | 0.00 | 51 | 1053.5 |
| 20260901182320 | 91 | 196 | 1.0 | 3.0 | 0.00 | 0.00 | 0.00 | 50 | 1053.8 |
| 20260901181815 | 89 | 224 | 0.0 | 1.0 | 0.00 | 0.00 | 0.00 | 50 | 1053.7 |
| 20260901181315 | 88 | 211 | 1.0 | 3.0 | 0.00 | 0.00 | 0.00 | 55 | 1053.6 |
| 20260901180809 | 87 | 239 | 0.0 | 2.0 | 0.00 | 0.00 | 0.00 | 47 | 1053.5 |
| 20260901180308 | 88 | 155 | 1.0 | 1.0 | 0.00 | 0.00 | 0.00 | 56 | 1053.5 |
| 20260901175807 | 87 | 90 | 3.0 | 4.0 | 0.00 | 0.00 | 0.00 | 54 | 1053.5 |
| 20260901175305 | 88 | 15 | 3.0 | 3.0 | 0.00 | 0.00 | 0.00 | 55 | 1053.6 |
| 20260901174757 | 87 | 224 | 0.0 | 2.0 | 0.00 | 0.00 | 0.00 | 61 | 1053.8 |
| 20260901174253 | 87 | 256 | 2.0 | 4.0 | 0.00 | 0.00 | 0.00 | 60 | 1053.7 |
| 20260901173748 | 87 | 226 | 0.0 | 2.0 | 0.00 | 0.00 | 0.00 | 57 | 1053.7 |
| 20260901173243 | 87 | 323 | 2.0 | 2.0 | 0.00 | 0.00 | 0.00 | 56 | 1053.8 |
| 20260901172740 | 88 | 173 | 0.0 | 1.0 | 0.00 | 0.00 | 0.00 | 55 | 1053.6 |
| 20260901172238 | 87 | 242 | 1.0 | 1.0 | 0.00 | 0.00 | 0.00 | 56 | 1053.5 |
| 20260901171737 | 88 | 278 | 0.0 | 2.0 | 0.00 | 0.00 | 0.00 | 58 | 1053.6 |
| 20260901171236 | 87 | 211 | 0.0 | 0.0 | 0.00 | 0.00 | 0.00 | 50 | 1053.6 |
| 20260901170735 | 87 | 40 | 2.0 | 4.0 | 0.00 | 0.00 | 0.00 | 49 | 1053.7 |
| 20260901170230 | 87 | 150 | 2.0 | 2.0 | 0.00 | 0.00 | 0.00 | 58 | 1053.6 |
| 20260901165728 | 86 | 329 | 1.0 | 2.0 | 0.00 | 0.00 | 0.00 | 56 | 1053.6 |
| 20260901165223 | 86 | 93 | 2.0 | 2.0 | 0.00 | 0.00 | 0.00 | 49 | 1053.7 |
| 20260901164720 | 86 | 216 | 1.0 | 2.0 | 0.00 | 0.00 | 0.00 | 57 | 1053.6 |
| 20260901164215 | 86 | 213 | 0.0 | 1.0 | 0.00 | 0.00 | 0.00 | 58 | 1053.7 |
| 20260901163710 | 86 | 277 | 1.0 | 2.0 | 0.00 | 0.00 | 0.00 | 56 | 1053.5 |
| 20260901163209 | 85 | 242 | 0.0 | 1.0 | 0.00 | 0.00 | 0.00 | 58 | 1053.6 |
| 20260901162705 | 85 | 40 | 1.0 | 2.0 | 0.00 | 0.00 | 0.00 | 64 | 1053.6 |
| 20260901162204 | 84 | 298 | 1.0 | 2.0 | 0.00 | 0.00 | 0.00 | 63 | 1053.7 |
| 20260901161703 | 84 | 266 | 1.0 | 2.0 | 0.00 | 0.00 | 0.00 | 71 | 1053.6 |
| 20260901161202 | 84 | 171 | 0.0 | 1.0 | 0.00 | 0.00 | 0.00 | 74 | 1053.8 |
| 20260901160659 | 83 | 230 | 0.0 | 0.0 | 0.00 | 0.00 | 0.00 | 74 | 1053.7 |
| 20260901160154 | 84 | 223 | 1.0 | 1.0 | 0.00 | 0.00 | 0.00 | 72 | 1053.8 |
| 20260901155653 | 83 | 245 | 1.0 | 1.0 | 0.00 | 0.00 | 0.00 | 78 | 1053.7 |
| 20260901155148 | 83 | 225 | 0.0 | 1.0 | 0.00 | 0.00 | 0.00 | 76 | 1053.7 |
| 20260901154643 | 84 | 262 | 1.0 | 1.0 | 0.00 | 0.00 | 0.00 | 75 | 1053.7 |
| 20260901154132 | 84 | 240 | 0.0 | 1.0 | 0.00 | 0.00 | 0.00 | 73 | 1053.7 |
| 20260901153628 | 82 | 225 | 0.0 | 2.0 | 0.00 | 0.00 | 0.00 | 75 | 1053.6 |
| 20260901153126 | 82 | 4 | 1.0 | 2.0 | 0.00 | 0.00 | 0.00 | 77 | 1053.6 |
| 20260901152622 | 82 | 233 | 0.0 | 1.0 | 0.00 | 0.00 | 0.00 | 80 | 1053.6 |
| 20260901152115 | 81 | 214 | 1.0 | 1.0 | 0.00 | 0.00 | 0.00 | 80 | 1053.6 |
| 20260901151611 | 82 | 238 | 0.0 | 1.0 | 0.00 | 0.00 | 0.00 | 78 | 1053.5 |
| 20260901151110 | 81 | 238 | 1.0 | 1.0 | 0.00 | 0.00 | 0.00 | 79 | 1053.7 |
| 20260901150609 | 79 | 215 | 0.0 | 1.0 | 0.00 | 0.00 | 0.00 | 79 | 1053.4 |
| 20260901150107 | 80 | 281 | 0.0 | 1.0 | 0.00 | 0.00 | 0.00 | 79 | 1053.5 |
| 20260901145601 | 81 | 229 | 0.0 | 1.0 | 0.00 | 0.00 | 0.00 | 81 | 1053.7 |
| 20260901145059 | 81 | 229 | 0.0 | 1.0 | 0.00 | 0.00 | 0.00 | 80 | 1053.7 |
| 20260901144550 | 80 | 210 | 0.0 | 1.0 | 0.00 | 0.00 | 0.00 | 80 | 1053.6 |
| 20260901144044 | 80 | 196 | 1.0 | 1.0 | 0.00 | 0.00 | 0.00 | 81 | 1053.5 |
| 20260901143540 | 78 | 210 | 0.0 | 1.0 | 0.00 | 0.00 | 0.00 | 85 | 1053.9 |
| 20260901143031 | 76 | 206 | 0.0 | 1.0 | 0.00 | 0.00 | 0.00 | 88 | 1053.8 |
| 20260901142526 | 75 | 169 | 0.0 | 2.0 | 0.00 | 0.00 | 0.00 | 89 | 1053.8 |
| 20260901142021 | 75 | 302 | 1.0 | 1.0 | 0.00 | 0.00 | 0.00 | 89 | 1053.9 |
| 20260901141521 | 74 | 253 | 0.0 | 1.0 | 0.00 | 0.00 | 0.00 | 92 | 1053.9 |
| 20260901141016 | 72 | 212 | 0.0 | 0.0 | 0.00 | 0.00 | 0.00 | 98 | 1053.9 |
| 20260901140514 | 71 | 280 | 1.0 | 2.0 | 0.00 | 0.00 | 0.00 | 99 | 1053.8 |
| 20260901140009 | 70 | 295 | 0.0 | 1.0 | 0.00 | 0.00 | 0.00 | 99 | 1053.9 |
| 20260901135508 | 69 | 277 | 0.0 | 1.0 | 0.00 | 0.00 | 0.00 | 99 | 1053.8 |
| 20260901135004 | 68 | 280 | 0.0 | 0.0 | 0.00 | 0.00 | 0.00 | 99 | 1053.9 |
| 20260901134459 | 68 | 257 | 0.0 | 0.0 | 0.00 | 0.00 | 0.00 | 99 | 1053.8 |
| 20260901133954 | 68 | 240 | 0.0 | 0.0 | 0.00 | 0.00 | 0.00 | 99 | 1053.7 |
| 20260901133453 | 68 | 241 | 0.0 | 0.0 | 0.00 | 0.00 | 0.00 | 99 | 1053.7 |
| 20260901132951 | 68 | 243 | 0.0 | 0.0 | 0.00 | 0.00 | 0.00 | 99 | 1053.6 |
| 20260901132452 | 69 | 223 | 0.0 | 0.0 | 0.00 | 0.00 | 0.00 | 99 | 1053.9 |
| 20260901131951 | 69 | 225 | 0.0 | 0.0 | 0.00 | 0.00 | 0.00 | 99 | 1053.9 |
| 20260901131450 | 68 | 225 | 0.0 | 0.0 | 0.00 | 0.00 | 0.00 | 99 | 1054.0 |
| 20260901130946 | 67 | 226 | 0.0 | 0.0 | 0.00 | 0.00 | 0.00 | 99 | 1054.0 |
| 20260901130441 | 66 | 239 | 0.0 | 0.0 | 0.00 | 0.00 | 0.00 | 99 | 1053.8 |
| 20260901125939 | 66 | 239 | 0.0 | 0.0 | 0.00 | 0.00 | 0.00 | 99 | 1053.9 |
| 20260901125438 | 65 | 239 | 0.0 | 0.0 | 0.00 | 0.00 | 0.00 | 99 | 1053.7 |
| 20260901124933 | 65 | 232 | 0.0 | 0.0 | 0.00 | 0.00 | 0.00 | 99 | 1053.8 |
| 20260901124428 | 65 | 232 | 0.0 | 0.0 | 0.00 | 0.00 | 0.00 | 99 | 1053.8 |
| 20260901123923 | 65 | 255 | 0.0 | 1.0 | 0.00 | 0.00 | 0.00 | 99 | 1053.8 |
| 20260901123418 | 65 | 229 | 0.0 | 0.0 | 0.00 | 0.00 | 0.00 | 99 | 1053.7 |